Search for airport 
image banner adimage banner adimage banner ad
image banner ad

25CL - Van Dyke Strip

Located in Pleasant Grove, United States

ICAO - 25CL, IATA -

Data provided by Airmate  

General information

Coordinates: N38°51'60" W121°29'4"
Elevation is 48 feet MSL.
Magnetic variation is 16° East
View others Airports in California

Operational data

Special qualification required
Current time UTC:
Current local time:
METAR: KLHM 221435Z AUTO 15013KT 10SM CLR 17/12 A2988 RMK AO1
View NOTAMs / SUP AIP / TFR affecting this airport [VIEW]
Communications frequencies: [VIEW]

Runways:

RWY identifierQFULength (ft)Width (ft)SurfaceLDA (ft)
N290050OTHER
S290050OTHER

Airport contact information

Address: Pleasant Grove United States

Satellite view of 25CL